createdAt,value
2017-03-20T00:00:04.166Z,990.93
2017-03-20T00:01:04.193Z,990.89
2017-03-20T00:02:04.223Z,990.96
2017-03-20T00:03:04.248Z,990.95
2017-03-20T00:04:04.277Z,990.99
2017-03-20T00:05:04.307Z,991
2017-03-20T00:06:04.331Z,990.93
2017-03-20T00:07:04.393Z,990.94
2017-03-20T00:08:04.394Z,990.94
2017-03-20T00:09:04.415Z,990.94
2017-03-20T00:10:04.441Z,990.93
2017-03-20T00:11:04.471Z,990.98
2017-03-20T00:12:04.503Z,990.9
2017-03-20T00:13:04.525Z,990.96
2017-03-20T00:14:04.549Z,990.95
2017-03-20T00:15:04.582Z,990.94
2017-03-20T00:16:04.606Z,990.95
2017-03-20T00:17:04.635Z,990.94
2017-03-20T00:18:04.664Z,990.93
2017-03-20T00:19:04.693Z,990.95
2017-03-20T00:20:04.717Z,990.9
2017-03-20T00:21:04.746Z,990.91
2017-03-20T00:22:04.775Z,990.98
2017-03-20T00:23:04.804Z,990.91
2017-03-20T00:24:04.829Z,990.92
2017-03-20T00:25:04.857Z,990.93
2017-03-20T00:26:04.886Z,990.92
2017-03-20T00:27:04.912Z,990.95
2017-03-20T00:28:04.940Z,990.88
2017-03-20T00:29:04.969Z,990.91
2017-03-20T00:30:04.996Z,990.92
2017-03-20T00:31:05.020Z,990.95
2017-03-20T00:32:05.051Z,990.93
2017-03-20T00:33:05.076Z,990.93
2017-03-20T00:34:05.110Z,990.93
2017-03-20T00:35:05.133Z,990.96
2017-03-20T00:36:05.159Z,990.95
2017-03-20T00:37:05.187Z,990.97
2017-03-20T00:38:05.214Z,990.95
2017-03-20T00:39:05.245Z,990.9
2017-03-20T00:40:05.267Z,990.9
2017-03-20T00:41:05.295Z,990.88
2017-03-20T00:42:05.321Z,990.88
2017-03-20T00:43:05.352Z,990.91
2017-03-20T00:44:05.379Z,990.97
2017-03-20T00:45:05.408Z,990.87
2017-03-20T00:46:05.429Z,990.86
2017-03-20T00:47:05.463Z,990.88
2017-03-20T00:48:05.490Z,990.91
2017-03-20T00:49:05.516Z,990.88
2017-03-20T00:50:05.542Z,990.91
2017-03-20T00:51:05.568Z,990.87
2017-03-20T00:52:05.603Z,990.9
2017-03-20T00:53:05.628Z,990.92
2017-03-20T00:54:05.656Z,990.9
2017-03-20T00:55:05.685Z,990.91
2017-03-20T00:56:05.708Z,990.89
2017-03-20T00:57:05.738Z,990.93
2017-03-20T00:58:05.767Z,990.95
2017-03-20T00:59:05.792Z,990.91
2017-03-20T01:00:05.820Z,990.93
2017-03-20T01:01:05.844Z,990.96
2017-03-20T01:02:05.874Z,990.9
2017-03-20T01:03:06.155Z,990.96
2017-03-20T01:04:05.931Z,990.94
2017-03-20T01:05:05.956Z,990.93
2017-03-20T01:06:05.984Z,990.95
2017-03-20T01:07:06.014Z,990.92
2017-03-20T01:08:06.289Z,990.93
2017-03-20T01:09:06.070Z,990.91
2017-03-20T01:10:06.099Z,990.89
2017-03-20T01:11:06.124Z,990.9
2017-03-20T01:12:06.150Z,990.91
2017-03-20T01:13:06.430Z,990.91
2017-03-20T01:14:06.207Z,990.9
2017-03-20T01:15:06.232Z,990.87
2017-03-20T01:16:06.260Z,990.84
2017-03-20T01:17:06.289Z,990.84
2017-03-20T01:18:06.571Z,990.84
2017-03-20T01:19:06.344Z,990.82
2017-03-20T01:20:06.372Z,990.82
2017-03-20T01:21:06.400Z,990.77
2017-03-20T01:22:06.425Z,990.82
2017-03-20T01:23:06.706Z,990.81
2017-03-20T01:24:06.479Z,990.8
2017-03-20T01:25:06.506Z,990.8
2017-03-20T01:26:06.536Z,990.83
2017-03-20T01:27:06.562Z,990.83
2017-03-20T01:28:06.839Z,990.82
2017-03-20T01:29:06.620Z,990.85
2017-03-20T01:30:06.644Z,990.79
2017-03-20T01:31:06.673Z,990.81
2017-03-20T01:32:06.701Z,990.83
2017-03-20T01:33:06.730Z,990.82
2017-03-20T01:34:06.759Z,990.79
2017-03-20T01:35:06.782Z,990.79
2017-03-20T01:36:06.811Z,990.77
2017-03-20T01:37:06.837Z,990.73
2017-03-20T01:38:06.866Z,990.76
2017-03-20T01:39:06.892Z,990.77
2017-03-20T01:40:06.921Z,990.8
2017-03-20T01:41:06.948Z,990.78
2017-03-20T01:42:06.968Z,990.8
2017-03-20T01:43:07.002Z,990.8
2017-03-20T01:44:07.031Z,990.77
2017-03-20T01:45:07.056Z,990.78
2017-03-20T01:46:07.084Z,990.77
2017-03-20T01:47:07.113Z,990.78
2017-03-20T01:48:07.137Z,990.78
2017-03-20T01:49:07.166Z,990.81
2017-03-20T01:50:07.197Z,990.74
2017-03-20T01:51:07.219Z,990.72
2017-03-20T01:52:07.249Z,990.68
2017-03-20T01:53:07.277Z,990.66
2017-03-20T01:54:07.302Z,990.74
2017-03-20T01:55:07.330Z,990.7
2017-03-20T01:56:07.360Z,990.68
2017-03-20T01:57:07.381Z,990.72
2017-03-20T01:58:07.412Z,990.72
2017-03-20T01:59:07.438Z,990.68
2017-03-20T02:00:07.465Z,990.7
2017-03-20T02:01:07.495Z,990.7
2017-03-20T02:02:07.523Z,990.65
2017-03-20T02:03:07.553Z,990.66
2017-03-20T02:04:07.574Z,990.67
2017-03-20T02:05:07.603Z,990.63
2017-03-20T02:06:07.631Z,990.63
2017-03-20T02:07:07.661Z,990.67
2017-03-20T02:08:07.685Z,990.65
2017-03-20T02:09:07.714Z,990.61
2017-03-20T02:10:07.732Z,990.64
2017-03-20T02:11:07.766Z,990.64
2017-03-20T02:12:07.795Z,990.61
2017-03-20T02:13:07.825Z,990.62
2017-03-20T02:14:07.850Z,990.55
2017-03-20T02:15:07.878Z,990.59
2017-03-20T02:16:07.907Z,990.53
2017-03-20T02:17:07.928Z,990.57
2017-03-20T02:18:07.960Z,990.57
2017-03-20T02:19:07.989Z,990.55
2017-03-20T02:20:08.014Z,990.56
2017-03-20T02:21:08.042Z,990.51
2017-03-20T02:22:08.072Z,990.57
2017-03-20T02:23:08.097Z,990.57
2017-03-20T02:24:08.161Z,990.51
2017-03-20T02:25:08.148Z,990.51
2017-03-20T02:26:08.178Z,990.49
2017-03-20T02:27:08.203Z,990.48
2017-03-20T02:28:08.237Z,990.54
2017-03-20T02:29:08.265Z,990.51
2017-03-20T02:30:08.289Z,990.5
2017-03-20T02:31:08.315Z,990.5
2017-03-20T02:32:08.343Z,990.53
2017-03-20T02:33:08.372Z,990.54
2017-03-20T02:34:08.401Z,990.51
2017-03-20T02:35:08.426Z,990.5
2017-03-20T02:36:08.450Z,990.48
2017-03-20T02:37:08.475Z,990.44
2017-03-20T02:38:08.508Z,990.5
2017-03-20T02:39:08.790Z,990.43
2017-03-20T02:40:08.561Z,990.42
2017-03-20T02:41:08.591Z,990.4
2017-03-20T02:42:08.610Z,990.41
2017-03-20T02:43:08.643Z,990.42
2017-03-20T02:44:08.927Z,990.42
2017-03-20T02:45:08.697Z,990.41
2017-03-20T02:46:08.726Z,990.43
2017-03-20T02:47:08.755Z,990.44
2017-03-20T02:48:08.780Z,990.41
2017-03-20T02:49:08.809Z,990.43
2017-03-20T02:50:08.838Z,990.44
2017-03-20T02:51:08.861Z,990.41
2017-03-20T02:52:08.891Z,990.4
2017-03-20T02:53:08.922Z,990.4
2017-03-20T02:54:08.946Z,990.42
2017-03-20T02:55:08.968Z,990.38
2017-03-20T02:56:09.001Z,990.39
2017-03-20T02:57:09.026Z,990.37
2017-03-20T02:58:09.054Z,990.4
2017-03-20T02:59:09.080Z,990.35
2017-03-20T03:00:09.109Z,990.38
2017-03-20T03:01:09.136Z,990.39
2017-03-20T03:02:09.163Z,990.34
2017-03-20T03:03:09.191Z,990.35
2017-03-20T03:04:09.224Z,990.31
2017-03-20T03:05:09.244Z,990.35
2017-03-20T03:06:09.273Z,990.35
2017-03-20T03:07:09.302Z,990.34
2017-03-20T03:08:09.323Z,990.38
2017-03-20T03:09:09.356Z,990.35
2017-03-20T03:10:09.381Z,990.33
2017-03-20T03:11:09.409Z,990.32
2017-03-20T03:12:09.441Z,990.32
2017-03-20T03:13:09.458Z,990.31
2017-03-20T03:14:09.492Z,990.35
2017-03-20T03:15:09.521Z,990.32
2017-03-20T03:16:09.545Z,990.34
2017-03-20T03:17:09.573Z,990.33
2017-03-20T03:18:09.600Z,990.26
2017-03-20T03:19:09.628Z,990.3
2017-03-20T03:20:09.658Z,990.31
2017-03-20T03:21:09.681Z,990.31
2017-03-20T03:22:09.710Z,990.29
2017-03-20T03:23:09.731Z,990.32
2017-03-20T03:24:09.763Z,990.31
2017-03-20T03:25:09.793Z,990.26
2017-03-20T03:26:09.820Z,990.26
2017-03-20T03:27:09.842Z,990.3
2017-03-20T03:28:09.870Z,990.32
2017-03-20T03:29:09.900Z,990.29
2017-03-20T03:30:09.928Z,990.27
2017-03-20T03:31:09.957Z,990.29
2017-03-20T03:32:09.980Z,990.3
2017-03-20T03:33:10.006Z,990.24
2017-03-20T03:34:10.040Z,990.28
2017-03-20T03:35:10.065Z,990.25
2017-03-20T03:36:10.103Z,990.26
2017-03-20T03:37:10.123Z,990.27
2017-03-20T03:38:10.146Z,990.28
2017-03-20T03:39:10.175Z,990.29
2017-03-20T03:40:10.195Z,990.25
2017-03-20T03:41:10.229Z,990.29
2017-03-20T03:42:10.251Z,990.28
2017-03-20T03:43:10.282Z,990.3
2017-03-20T03:44:10.311Z,990.27
2017-03-20T03:45:10.336Z,990.27
2017-03-20T03:46:10.390Z,990.27
2017-03-20T03:47:10.391Z,990.26
2017-03-20T03:48:10.418Z,990.28
2017-03-20T03:49:10.447Z,990.28
2017-03-20T03:50:10.475Z,990.3
2017-03-20T03:51:10.500Z,990.29
2017-03-20T03:52:10.529Z,990.36
2017-03-20T03:53:10.552Z,990.33
2017-03-20T03:54:10.583Z,990.31
2017-03-20T03:55:10.612Z,990.33
2017-03-20T03:56:10.636Z,990.35
2017-03-20T03:57:10.663Z,990.32
2017-03-20T03:58:10.688Z,990.34
2017-03-20T03:59:10.718Z,990.35
2017-03-20T04:00:10.742Z,990.34
2017-03-20T04:01:10.772Z,990.35
2017-03-20T04:02:10.802Z,990.36
2017-03-20T04:03:10.826Z,990.34
2017-03-20T04:04:10.850Z,990.32
2017-03-20T04:05:10.883Z,990.33
2017-03-20T04:06:10.907Z,990.35
2017-03-20T04:07:10.936Z,990.34
2017-03-20T04:08:10.960Z,990.4
2017-03-20T04:09:10.990Z,990.4
2017-03-20T04:10:11.019Z,990.39
2017-03-20T04:11:11.043Z,990.38
2017-03-20T04:12:11.072Z,990.39
2017-03-20T04:13:11.101Z,990.39
2017-03-20T04:14:11.124Z,990.41
2017-03-20T04:15:11.155Z,990.4
2017-03-20T04:16:11.175Z,990.38
2017-03-20T04:17:11.208Z,990.42
2017-03-20T04:18:11.233Z,990.41
2017-03-20T04:19:11.265Z,990.38
2017-03-20T04:20:11.291Z,990.41
2017-03-20T04:21:11.314Z,990.39
2017-03-20T04:22:11.347Z,990.43
2017-03-20T04:23:11.372Z,990.4
2017-03-20T04:24:11.397Z,990.51
2017-03-20T04:25:11.426Z,990.45
2017-03-20T04:26:11.454Z,990.44
2017-03-20T04:27:11.479Z,990.42
2017-03-20T04:28:11.508Z,990.45
2017-03-20T04:29:11.533Z,990.43
2017-03-20T04:30:11.562Z,990.43
2017-03-20T04:31:11.590Z,990.4
2017-03-20T04:32:11.615Z,990.35
2017-03-20T04:33:11.641Z,990.37
2017-03-20T04:34:11.669Z,990.39
2017-03-20T04:35:11.698Z,990.38
2017-03-20T04:36:11.727Z,990.45
2017-03-20T04:37:11.752Z,990.43
2017-03-20T04:38:11.780Z,990.41
2017-03-20T04:39:11.808Z,990.39
2017-03-20T04:40:11.835Z,990.4
2017-03-20T04:41:11.862Z,990.39
2017-03-20T04:42:11.888Z,990.43
2017-03-20T04:43:11.916Z,990.42
2017-03-20T04:44:11.944Z,990.47
2017-03-20T04:45:11.970Z,990.43
2017-03-20T04:46:11.997Z,990.4
2017-03-20T04:47:12.023Z,990.4
2017-03-20T04:48:12.052Z,990.42
2017-03-20T04:49:12.081Z,990.37
2017-03-20T04:50:12.100Z,990.32
2017-03-20T04:51:12.134Z,990.4
2017-03-20T04:52:12.159Z,990.37
2017-03-20T04:53:12.188Z,990.35
2017-03-20T04:54:12.216Z,990.36
2017-03-20T04:55:12.242Z,990.32
2017-03-20T04:56:12.267Z,990.3
2017-03-20T04:57:12.298Z,990.35
2017-03-20T04:58:12.324Z,990.29
2017-03-20T04:59:12.355Z,990.31
2017-03-20T05:00:12.373Z,990.29
2017-03-20T05:01:12.406Z,990.32
2017-03-20T05:02:12.430Z,990.34
2017-03-20T05:03:12.462Z,990.32
2017-03-20T05:04:12.485Z,990.33
2017-03-20T05:05:12.509Z,990.26
2017-03-20T05:06:12.540Z,990.27
2017-03-20T05:07:12.566Z,990.28
2017-03-20T05:08:12.596Z,990.26
2017-03-20T05:09:12.622Z,990.24
2017-03-20T05:10:12.648Z,990.27
2017-03-20T05:11:12.678Z,990.3
2017-03-20T05:12:12.702Z,990.22
2017-03-20T05:13:12.732Z,990.29
2017-03-20T05:14:12.760Z,990.24
2017-03-20T05:15:12.784Z,990.23
2017-03-20T05:16:12.813Z,990.29
2017-03-20T05:17:12.837Z,990.29
2017-03-20T05:18:12.863Z,990.25
2017-03-20T05:19:12.897Z,990.28
2017-03-20T05:20:12.920Z,990.26
2017-03-20T05:21:12.948Z,990.22
2017-03-20T05:22:12.973Z,990.24
2017-03-20T05:23:13.003Z,990.22
2017-03-20T05:24:13.031Z,990.21
2017-03-20T05:25:13.055Z,990.17
2017-03-20T05:26:13.085Z,990.17
2017-03-20T05:27:13.114Z,990.25
2017-03-20T05:28:13.139Z,990.19
2017-03-20T05:29:13.168Z,990.25
2017-03-20T05:30:13.195Z,990.3
2017-03-20T05:31:13.221Z,990.3
2017-03-20T05:32:13.244Z,990.33
2017-03-20T05:33:13.275Z,990.37
2017-03-20T05:34:13.299Z,990.36
2017-03-20T05:35:13.328Z,990.36
2017-03-20T05:36:13.352Z,990.39
2017-03-20T05:37:13.381Z,990.39
2017-03-20T05:38:13.410Z,990.4
2017-03-20T05:39:13.435Z,990.4
2017-03-20T05:40:13.715Z,990.35
2017-03-20T05:41:13.490Z,990.35
2017-03-20T05:42:13.517Z,990.35
2017-03-20T05:43:13.546Z,990.33
2017-03-20T05:44:13.571Z,990.32
2017-03-20T05:45:13.851Z,990.34
2017-03-20T05:46:13.623Z,990.35
2017-03-20T05:47:13.654Z,990.38
2017-03-20T05:48:13.682Z,990.35
2017-03-20T05:49:13.710Z,990.32
2017-03-20T05:50:13.986Z,990.35
2017-03-20T05:51:13.759Z,990.33
2017-03-20T05:52:13.788Z,990.34
2017-03-20T05:53:13.817Z,990.32
2017-03-20T05:54:13.847Z,990.28
2017-03-20T05:55:13.871Z,990.34
2017-03-20T05:56:13.899Z,990.35
2017-03-20T05:57:13.925Z,990.34
2017-03-20T05:58:13.954Z,990.35
2017-03-20T05:59:13.977Z,990.43
2017-03-20T06:00:14.008Z,990.45
2017-03-20T06:01:14.036Z,990.48
2017-03-20T06:02:14.061Z,990.41
2017-03-20T06:03:14.090Z,990.43
2017-03-20T06:04:14.119Z,990.45
2017-03-20T06:05:14.143Z,990.38
2017-03-20T06:06:14.172Z,990.41
2017-03-20T06:07:14.202Z,990.43
2017-03-20T06:08:14.226Z,990.4
2017-03-20T06:09:14.254Z,990.44
2017-03-20T06:10:14.279Z,990.43
2017-03-20T06:11:14.308Z,990.51
2017-03-20T06:12:14.328Z,990.5
2017-03-20T06:13:14.361Z,990.51
2017-03-20T06:14:14.389Z,990.53
2017-03-20T06:15:14.413Z,990.52
2017-03-20T06:16:14.443Z,990.54
2017-03-20T06:17:14.469Z,990.63
2017-03-20T06:18:14.498Z,990.59
2017-03-20T06:19:14.526Z,990.59
2017-03-20T06:20:14.550Z,990.55
2017-03-20T06:21:14.580Z,990.57
2017-03-20T06:22:14.604Z,990.61
2017-03-20T06:23:14.633Z,990.61
2017-03-20T06:24:14.663Z,990.56
2017-03-20T06:25:14.686Z,990.57
2017-03-20T06:26:14.714Z,990.6
2017-03-20T06:27:14.739Z,990.58
2017-03-20T06:28:14.773Z,990.6
2017-03-20T06:29:14.798Z,990.56
2017-03-20T06:30:14.826Z,990.6
2017-03-20T06:31:14.850Z,990.62
2017-03-20T06:32:14.876Z,990.53
2017-03-20T06:33:14.907Z,990.58
2017-03-20T06:34:14.939Z,990.52
2017-03-20T06:35:14.963Z,990.52
2017-03-20T06:36:14.990Z,990.55
2017-03-20T06:37:15.016Z,990.57
2017-03-20T06:38:15.045Z,990.57
2017-03-20T06:39:15.071Z,990.57
2017-03-20T06:40:15.097Z,990.54
2017-03-20T06:41:15.126Z,990.52
2017-03-20T06:42:15.153Z,990.51
2017-03-20T06:43:15.181Z,990.55
2017-03-20T06:44:15.208Z,990.52
2017-03-20T06:45:15.234Z,990.58
2017-03-20T06:46:15.261Z,990.57
2017-03-20T06:47:15.292Z,990.56
2017-03-20T06:48:15.316Z,990.56
2017-03-20T06:49:15.345Z,990.51
2017-03-20T06:50:15.369Z,990.55
2017-03-20T06:51:15.398Z,990.56
2017-03-20T06:52:15.427Z,990.53
2017-03-20T06:53:15.456Z,990.53
2017-03-20T06:54:15.481Z,990.57
2017-03-20T06:55:15.510Z,990.53
2017-03-20T06:56:15.538Z,990.55
2017-03-20T06:57:15.562Z,990.56
2017-03-20T06:58:15.594Z,990.6
2017-03-20T06:59:15.622Z,990.66
2017-03-20T07:00:15.645Z,990.64
2017-03-20T07:01:15.674Z,990.6
2017-03-20T07:02:15.707Z,990.64
2017-03-20T07:03:15.729Z,990.66
2017-03-20T07:04:15.759Z,990.62
2017-03-20T07:05:15.786Z,990.58
2017-03-20T07:06:15.810Z,990.59
2017-03-20T07:07:15.835Z,990.59
2017-03-20T07:08:15.868Z,990.59
2017-03-20T07:09:15.892Z,990.59
2017-03-20T07:10:15.921Z,990.63
2017-03-20T07:11:15.952Z,990.56
2017-03-20T07:12:15.975Z,990.62
2017-03-20T07:13:16.006Z,990.65
2017-03-20T07:14:16.033Z,990.61
2017-03-20T07:15:16.056Z,990.63
2017-03-20T07:16:16.087Z,990.67
2017-03-20T07:17:16.114Z,990.65
2017-03-20T07:18:16.141Z,990.68
2017-03-20T07:19:16.171Z,990.6
2017-03-20T07:20:16.197Z,990.59
2017-03-20T07:21:16.218Z,990.58
2017-03-20T07:22:16.247Z,990.58
2017-03-20T07:23:16.280Z,990.53
2017-03-20T07:24:16.308Z,990.51
2017-03-20T07:25:16.329Z,990.54
2017-03-20T07:26:16.362Z,990.55
2017-03-20T07:27:16.391Z,990.53
2017-03-20T07:28:16.415Z,990.49
2017-03-20T07:29:16.445Z,990.49
2017-03-20T07:30:16.474Z,990.46
2017-03-20T07:31:16.501Z,990.48
2017-03-20T07:32:16.527Z,990.47
2017-03-20T07:33:16.554Z,990.44
2017-03-20T07:34:16.584Z,990.49
2017-03-20T07:35:16.608Z,990.46
2017-03-20T07:36:16.642Z,990.49
2017-03-20T07:37:16.666Z,990.46
2017-03-20T07:38:16.691Z,990.5
2017-03-20T07:39:16.720Z,990.45
2017-03-20T07:40:16.748Z,990.45
2017-03-20T07:41:16.777Z,990.45
2017-03-20T07:42:16.802Z,990.45
2017-03-20T07:43:16.830Z,990.5
2017-03-20T07:44:16.859Z,990.45
2017-03-20T07:45:16.887Z,990.46
2017-03-20T07:46:16.914Z,990.45
2017-03-20T07:47:16.942Z,990.43
2017-03-20T07:48:16.971Z,990.45
2017-03-20T07:49:16.994Z,990.47
2017-03-20T07:50:17.023Z,990.43
2017-03-20T07:51:17.053Z,990.43
2017-03-20T07:52:17.077Z,990.46
2017-03-20T07:53:17.106Z,990.46
2017-03-20T07:54:17.136Z,990.46
2017-03-20T07:55:17.163Z,990.48
2017-03-20T07:56:17.189Z,990.49
2017-03-20T07:57:17.218Z,990.44
2017-03-20T07:58:17.250Z,990.52
2017-03-20T07:59:17.272Z,990.52
2017-03-20T08:00:17.300Z,990.51
2017-03-20T08:01:17.580Z,990.5
2017-03-20T08:02:17.353Z,990.51
2017-03-20T08:03:17.382Z,990.48
2017-03-20T08:04:17.411Z,990.49
2017-03-20T08:05:17.441Z,990.47
2017-03-20T08:06:17.716Z,990.5
2017-03-20T08:07:17.493Z,990.51
2017-03-20T08:08:17.518Z,990.46
2017-03-20T08:09:17.547Z,990.53
2017-03-20T08:10:17.575Z,990.54
2017-03-20T08:11:17.856Z,990.5
2017-03-20T08:12:17.632Z,990.51
2017-03-20T08:13:17.654Z,990.5
2017-03-20T08:14:17.687Z,990.48
2017-03-20T08:15:17.716Z,990.46
2017-03-20T08:16:17.992Z,990.48
2017-03-20T08:17:17.769Z,990.46
2017-03-20T08:18:17.799Z,990.44
2017-03-20T08:19:17.827Z,990.35
2017-03-20T08:20:17.852Z,990.46
2017-03-20T08:21:17.880Z,990.46
2017-03-20T08:22:17.906Z,990.48
2017-03-20T08:23:17.939Z,990.48
2017-03-20T08:24:17.963Z,990.5
2017-03-20T08:25:17.992Z,990.47
2017-03-20T08:26:18.023Z,990.39
2017-03-20T08:27:18.044Z,990.44
2017-03-20T08:28:18.071Z,990.44
2017-03-20T08:29:18.102Z,990.46
2017-03-20T08:30:18.130Z,990.48
2017-03-20T08:31:18.156Z,990.5
2017-03-20T08:32:18.184Z,990.51
2017-03-20T08:33:18.214Z,990.49
2017-03-20T08:34:18.243Z,990.48
2017-03-20T08:35:18.266Z,990.52
2017-03-20T08:36:18.295Z,990.52
2017-03-20T08:37:18.324Z,990.51
2017-03-20T08:38:18.346Z,990.54
2017-03-20T08:39:18.378Z,990.53
2017-03-20T08:40:18.407Z,990.51
2017-03-20T08:41:18.436Z,990.55
2017-03-20T08:42:18.459Z,990.53
2017-03-20T08:43:18.488Z,990.53
2017-03-20T08:44:18.513Z,990.53
2017-03-20T08:45:18.543Z,990.5
2017-03-20T08:46:18.577Z,990.47
2017-03-20T08:47:18.601Z,990.5
2017-03-20T08:48:18.630Z,990.46
2017-03-20T08:49:18.654Z,990.49
2017-03-20T08:50:18.683Z,990.49
2017-03-20T08:51:18.712Z,990.48
2017-03-20T08:52:18.741Z,990.47
2017-03-20T08:53:18.765Z,990.5
2017-03-20T08:54:18.794Z,990.48
2017-03-20T08:55:18.818Z,990.53
2017-03-20T08:56:18.847Z,990.54
2017-03-20T08:57:18.876Z,990.51
2017-03-20T08:58:18.910Z,990.5
2017-03-20T08:59:18.934Z,990.5
2017-03-20T09:00:18.958Z,990.5
2017-03-20T09:01:18.988Z,990.52
2017-03-20T09:02:19.017Z,990.53
2017-03-20T09:03:19.037Z,990.51
2017-03-20T09:04:19.070Z,990.53
2017-03-20T09:05:19.098Z,990.53
2017-03-20T09:06:19.126Z,990.52
2017-03-20T09:07:19.152Z,990.53
2017-03-20T09:08:19.181Z,990.52
2017-03-20T09:09:19.207Z,990.51
2017-03-20T09:10:19.238Z,990.52
2017-03-20T09:11:19.266Z,990.57
2017-03-20T09:12:19.291Z,990.53
2017-03-20T09:13:19.321Z,990.5
2017-03-20T09:14:19.349Z,990.57
2017-03-20T09:15:19.374Z,990.47
2017-03-20T09:16:19.402Z,990.52
2017-03-20T09:17:19.682Z,990.47
2017-03-20T09:18:19.461Z,990.48
2017-03-20T09:19:19.486Z,990.5
2017-03-20T09:20:19.514Z,990.5
2017-03-20T09:21:19.542Z,990.54
2017-03-20T09:22:19.822Z,990.46
2017-03-20T09:23:19.596Z,990.43
2017-03-20T09:24:19.623Z,990.46
2017-03-20T09:25:19.652Z,990.44
2017-03-20T09:26:19.679Z,990.48
2017-03-20T09:27:19.964Z,990.48
2017-03-20T09:28:19.736Z,990.5
2017-03-20T09:29:19.765Z,990.43
2017-03-20T09:30:19.788Z,990.42
2017-03-20T09:31:19.818Z,990.46
2017-03-20T09:32:19.846Z,990.47
2017-03-20T09:33:19.875Z,990.47
2017-03-20T09:34:19.900Z,990.5
2017-03-20T09:35:19.929Z,990.44
2017-03-20T09:36:19.959Z,990.48
2017-03-20T09:37:19.987Z,990.42
2017-03-20T09:38:20.012Z,990.45
2017-03-20T09:39:20.040Z,990.5
2017-03-20T09:40:20.070Z,990.51
2017-03-20T09:41:20.098Z,990.46
2017-03-20T09:42:20.122Z,990.5
2017-03-20T09:43:20.152Z,990.48
2017-03-20T09:44:20.181Z,990.48
2017-03-20T09:45:20.209Z,990.44
2017-03-20T09:46:20.234Z,990.42
2017-03-20T09:47:20.263Z,990.44
2017-03-20T09:48:20.291Z,990.51
2017-03-20T09:49:20.320Z,990.47
2017-03-20T09:50:20.348Z,990.45
2017-03-20T09:51:20.374Z,990.41
2017-03-20T09:52:20.399Z,990.42
2017-03-20T09:53:20.431Z,990.4
2017-03-20T09:54:20.457Z,990.41
2017-03-20T09:55:20.485Z,990.44
2017-03-20T09:56:20.518Z,990.42
2017-03-20T09:57:20.543Z,990.45
2017-03-20T09:58:20.568Z,990.39
2017-03-20T09:59:20.596Z,990.44
2017-03-20T10:00:20.625Z,990.44
2017-03-20T10:01:20.653Z,990.48
2017-03-20T10:02:20.682Z,990.41
2017-03-20T10:03:20.707Z,990.44
2017-03-20T10:04:20.736Z,990.41
2017-03-20T10:05:20.764Z,990.4
2017-03-20T10:06:20.792Z,990.31
2017-03-20T10:07:20.820Z,990.39
2017-03-20T10:08:20.855Z,990.37
2017-03-20T10:09:20.875Z,990.38
2017-03-20T10:10:20.904Z,990.34
2017-03-20T10:11:20.933Z,990.33
2017-03-20T10:12:20.959Z,990.28
2017-03-20T10:13:20.987Z,990.34
2017-03-20T10:14:21.016Z,990.3
2017-03-20T10:15:21.045Z,990.33
2017-03-20T10:16:21.065Z,990.36
2017-03-20T10:17:21.097Z,990.34
2017-03-20T10:18:21.123Z,990.32
2017-03-20T10:19:21.155Z,990.31
2017-03-20T10:20:21.180Z,990.31
2017-03-20T10:21:21.209Z,990.28
2017-03-20T10:22:21.238Z,990.29
2017-03-20T10:23:21.266Z,990.26
2017-03-20T10:24:21.295Z,990.2
2017-03-20T10:25:21.319Z,990.25
2017-03-20T10:26:21.348Z,990.16
2017-03-20T10:27:21.374Z,990.15
2017-03-20T10:28:21.407Z,990.2
2017-03-20T10:29:21.439Z,990.16
2017-03-20T10:30:21.468Z,990.17
2017-03-20T10:31:21.485Z,990.1
2017-03-20T10:32:21.518Z,990.13
2017-03-20T10:33:21.548Z,990.14
2017-03-20T10:34:21.572Z,990.11
2017-03-20T10:35:21.600Z,990.12
2017-03-20T10:36:21.629Z,990.12
2017-03-20T10:37:21.653Z,990.11
2017-03-20T10:38:21.687Z,990.12
2017-03-20T10:39:21.711Z,990.11
2017-03-20T10:40:21.740Z,990.09
2017-03-20T10:41:21.769Z,990.09
2017-03-20T10:42:21.788Z,990.12
2017-03-20T10:43:21.822Z,990.12
2017-03-20T10:44:21.850Z,990.14
2017-03-20T10:45:21.878Z,990.13
2017-03-20T10:46:21.907Z,990.15
2017-03-20T10:47:21.928Z,990.07
2017-03-20T10:48:21.962Z,990.1
2017-03-20T10:49:21.991Z,990.1
2017-03-20T10:50:22.018Z,990.15
2017-03-20T10:51:22.043Z,990.15
2017-03-20T10:52:22.072Z,990.14
2017-03-20T10:53:22.353Z,990.1
2017-03-20T10:54:22.130Z,990.18
2017-03-20T10:55:22.151Z,990.2
2017-03-20T10:56:22.184Z,990.18
2017-03-20T10:57:22.209Z,990.19
2017-03-20T10:58:22.490Z,990.11
2017-03-20T10:59:22.267Z,990.13
2017-03-20T11:00:22.295Z,990.12
2017-03-20T11:01:22.323Z,990.09
2017-03-20T11:02:22.353Z,990.08
2017-03-20T11:03:22.628Z,990.08
2017-03-20T11:04:22.409Z,990.08
2017-03-20T11:05:22.435Z,990.07
2017-03-20T11:06:22.463Z,990.08
2017-03-20T11:07:22.485Z,990.03
2017-03-20T11:08:22.769Z,990.02
2017-03-20T11:09:22.546Z,990.02
2017-03-20T11:10:22.571Z,989.91
2017-03-20T11:11:22.600Z,989.93
2017-03-20T11:12:22.624Z,989.96
2017-03-20T11:13:22.910Z,990
2017-03-20T11:14:22.682Z,989.96
2017-03-20T11:15:22.711Z,989.95
2017-03-20T11:16:22.738Z,989.98
2017-03-20T11:17:22.767Z,990
2017-03-20T11:18:23.044Z,989.98
2017-03-20T11:19:22.822Z,990
2017-03-20T11:20:22.847Z,990.01
2017-03-20T11:21:22.885Z,989.95
2017-03-20T11:22:22.899Z,989.93
2017-03-20T11:23:22.933Z,989.87
2017-03-20T11:24:22.962Z,989.8
2017-03-20T11:25:22.991Z,989.78
2017-03-20T11:26:23.015Z,989.77
2017-03-20T11:27:23.044Z,989.79
2017-03-20T11:28:23.073Z,989.76
2017-03-20T11:29:23.098Z,989.75
2017-03-20T11:30:23.127Z,989.75
2017-03-20T11:31:23.156Z,989.74
2017-03-20T11:32:23.184Z,989.7
2017-03-20T11:33:23.208Z,989.73
2017-03-20T11:34:23.242Z,989.74
2017-03-20T11:35:23.266Z,989.73
2017-03-20T11:36:23.295Z,989.78
2017-03-20T11:37:23.315Z,989.78
2017-03-20T11:38:23.349Z,989.77
2017-03-20T11:39:23.376Z,989.81
2017-03-20T11:40:23.401Z,989.77
2017-03-20T11:41:23.433Z,989.73
2017-03-20T11:42:23.460Z,989.72
2017-03-20T11:43:23.485Z,989.73
2017-03-20T11:44:23.513Z,989.68
2017-03-20T11:45:23.577Z,989.64
2017-03-20T11:46:23.571Z,989.63
2017-03-20T11:47:23.595Z,989.6
2017-03-20T11:48:23.624Z,989.63
2017-03-20T11:49:23.656Z,989.67
2017-03-20T11:50:23.677Z,989.63
2017-03-20T11:51:23.710Z,989.57
2017-03-20T11:52:23.731Z,989.57
2017-03-20T11:53:23.764Z,989.59
2017-03-20T11:54:23.794Z,989.62
2017-03-20T11:55:23.821Z,989.54
2017-03-20T11:56:23.850Z,989.5
2017-03-20T11:57:23.875Z,989.53
2017-03-20T11:58:23.900Z,989.44
2017-03-20T11:59:23.931Z,989.47
2017-03-20T12:00:23.961Z,989.51
2017-03-20T12:01:23.987Z,989.47
2017-03-20T12:02:24.015Z,989.5
2017-03-20T12:03:24.045Z,989.47
2017-03-20T12:04:24.073Z,989.45
2017-03-20T12:05:24.101Z,989.41
2017-03-20T12:06:24.126Z,989.35
2017-03-20T12:07:24.153Z,989.45
2017-03-20T12:08:24.184Z,989.4
2017-03-20T12:09:24.213Z,989.4
2017-03-20T12:10:24.237Z,989.4
2017-03-20T12:11:24.267Z,989.35
2017-03-20T12:12:24.294Z,989.39
2017-03-20T12:13:24.323Z,989.32
2017-03-20T12:14:24.355Z,989.39
2017-03-20T12:15:24.376Z,989.35
2017-03-20T12:16:24.404Z,989.38
2017-03-20T12:17:24.434Z,989.27
2017-03-20T12:18:24.463Z,989.27
2017-03-20T12:19:24.493Z,989.28
2017-03-20T12:20:24.514Z,989.31
2017-03-20T12:21:24.545Z,989.28
2017-03-20T12:22:24.570Z,989.21
2017-03-20T12:23:24.602Z,989.23
2017-03-20T12:24:24.632Z,989.19
2017-03-20T12:25:24.652Z,989.23
2017-03-20T12:26:24.685Z,989.28
2017-03-20T12:27:24.714Z,989.18
2017-03-20T12:28:24.743Z,989.23
2017-03-20T12:29:24.775Z,989.17
2017-03-20T12:30:24.797Z,989.13
2017-03-20T12:31:24.820Z,989.18